Pagina principale
METAR-TAF:

METAR-TAF

Aeroporti :

Aeroporto di Bucarest-Henri Coandă

Bucarest, Romania

latitudine: 44-33N, longitudine: 026-06E, altezza: 95 m

Osservazione

Il bollettino è stato emesso 28 minuti fa, alle 12:30 UTC
Vento 4 kt da nord-ovest, variando fra ovest/sud-ovest e nord/nord-ovest
Temperature 31°C
Umidità 40%
Pressione 1014 hPa
Visibilità 10 km o più
nessuna nube inferiore a 1500 m e nessun cumulonembo

METAR: LROP 151230Z 31004KT 250V340 CAVOK 31/16 Q1014 NOSIG

Ora: 15:58 (12:58 UTC)

Previsione

Il bollettino è stato emesso 1 ora e 58 minuti fa, alle 11:00 UTC
Previsione valida dal 15 alle 12 UTC al 16 alle 12 UTC
Vento 4 kt da direzioni variabili
Visibilità 10 km o più
nessuna nube inferiore a 1500 m e nessun cumulonembo
Evoluzione graduale
dal 16 alle 07 UTC al 16 alle 09 UTC
Vento 10 kt da nord-est

TAF: LROP 151100Z 1512/1612 VRB04KT CAVOK BECMG 1607/1609 05010KT

Osservazioni e previsioni meteorologiche di più di 4000 aeroporti (messaggi METAR e TAF).

Le stazioni disponibili sono rappresentate dai dischi gialli e rossi sulla carta.

Puntare il mouse per vedere il nome della stazione.

Clicca sopra per visualizzare le osservazioni e previsioni meteorologiche.

Per cambiare la mappa : fare clic sui pulsanti verdi con una croce nera per ingrandire, il pulsante verde con un trattino per diminuire, o sulla freccia verde per le mappe adiacenti.


METAR-TAF: